Time;durP1;ratioP1;P1;durP2;ratioP2;P2;SDS_P1;SDS_P2;PMS_P1;PMS_P2;Temp;Humidity;BMP_temperature;BMP_pressure;BME280_temperature;BME280_humidity;BME280_pressure;Samples;Min_cycle;Max_cycle;Signal;HPM_P1;HPM_P2
2023/10/25 00:02:07;;;;;;;26.02;17.05;;;12.30;99.90;;;;;;6192451;23;20053;-67
2023/10/25 00:04:33;;;;;;;29.30;17.80;;;12.30;99.90;;;;;;6191145;23;20008;-68
2023/10/25 00:06:59;;;;;;;24.77;17.13;;;12.30;99.90;;;;;;6194119;23;20004;-67
2023/10/25 00:09:24;;;;;;;24.75;16.48;;;12.30;99.90;;;;;;6193961;23;19997;-68
2023/10/25 00:11:50;;;;;;;26.38;17.50;;;12.30;99.90;;;;;;6190650;23;20169;-68
2023/10/25 00:14:16;;;;;;;27.55;18.10;;;12.30;99.90;;;;;;6192676;23;20052;-68
2023/10/25 00:16:41;;;;;;;25.02;16.13;;;12.30;99.90;;;;;;6191589;23;20009;-68
2023/10/25 00:19:07;;;;;;;31.15;19.15;;;12.30;99.90;;;;;;6191266;23;20053;-68
2023/10/25 00:21:33;;;;;;;27.95;18.40;;;12.30;99.90;;;;;;6193758;23;20011;-68
2023/10/25 00:23:58;;;;;;;28.98;18.38;;;12.30;99.90;;;;;;6191623;23;20331;-68
2023/10/25 00:26:24;;;;;;;29.58;17.58;;;12.30;99.90;;;;;;6193732;23;20001;-68
2023/10/25 00:28:50;;;;;;;27.48;17.48;;;12.40;99.90;;;;;;6192832;23;19998;-68
2023/10/25 00:31:16;;;;;;;26.63;17.92;;;12.40;99.90;;;;;;6191608;23;20005;-68
2023/10/25 00:33:42;;;;;;;27.15;19.13;;;12.40;99.90;;;;;;6192076;23;20009;-68
2023/10/25 00:36:07;;;;;;;27.15;17.65;;;12.40;99.90;;;;;;6192296;23;20322;-68
2023/10/25 00:38:33;;;;;;;28.58;17.88;;;12.40;99.90;;;;;;6191605;23;20016;-68
2023/10/25 00:40:58;;;;;;;24.73;18.05;;;12.50;99.90;;;;;;6191104;23;20032;-67
2023/10/25 00:43:24;;;;;;;25.10;17.63;;;12.40;99.90;;;;;;6189462;23;20055;-67
2023/10/25 00:46:00;;;;;;;26.77;17.00;;;12.50;99.90;;;;;;6191021;23;20092;-67
2023/10/25 00:48:27;;;;;;;24.80;17.88;;;12.50;99.90;;;;;;6190612;23;20005;-67
2023/10/25 00:50:53;;;;;;;23.20;17.40;;;12.50;99.90;;;;;;6191228;23;20001;-67
2023/10/25 00:53:19;;;;;;;22.45;16.35;;;12.50;99.90;;;;;;6189549;23;20063;-67
2023/10/25 00:55:45;;;;;;;22.58;16.50;;;12.50;99.90;;;;;;6191190;23;20372;-67
2023/10/25 00:58:11;;;;;;;27.75;16.90;;;12.50;99.90;;;;;;6190567;23;20438;-67
2023/10/25 01:00:37;;;;;;;22.85;15.68;;;12.50;99.90;;;;;;6190257;23;20001;-67
2023/10/25 01:03:07;;;;;;;21.98;15.57;;;12.50;99.90;;;;;;6190386;23;20007;-67
2023/10/25 01:05:33;;;;;;;22.88;15.60;;;12.50;99.90;;;;;;6189706;23;19997;-67
2023/10/25 01:07:59;;;;;;;24.23;15.07;;;12.50;99.90;;;;;;6187610;23;20001;-67
2023/10/25 01:10:25;;;;;;;21.08;15.20;;;12.50;99.90;;;;;;6188186;23;20441;-67
2023/10/25 01:12:52;;;;;;;19.10;13.95;;;12.60;99.90;;;;;;6189852;23;20004;-67
2023/10/25 01:15:22;;;;;;;17.15;14.50;;;12.60;99.90;;;;;;6189808;23;20027;-68
2023/10/25 01:17:47;;;;;;;18.40;13.98;;;12.60;99.90;;;;;;6189892;23;19997;-67
2023/10/25 01:20:13;;;;;;;18.35;13.75;;;12.70;99.90;;;;;;6188169;23;20336;-67
2023/10/25 01:22:39;;;;;;;20.17;13.20;;;12.70;99.90;;;;;;6186563;23;20005;-67
2023/10/25 01:25:05;;;;;;;19.58;13.63;;;12.70;99.90;;;;;;6188277;23;20430;-67
2023/10/25 01:27:30;;;;;;;15.85;12.77;;;12.70;99.90;;;;;;6186062;23;20112;-67
2023/10/25 01:29:56;;;;;;;16.58;13.27;;;12.60;99.90;;;;;;6187721;23;20288;-67
2023/10/25 01:32:22;;;;;;;17.02;12.48;;;12.70;99.90;;;;;;6186654;23;20469;-68
2023/10/25 01:34:47;;;;;;;16.05;12.25;;;12.70;99.90;;;;;;6186703;23;20008;-67
2023/10/25 01:37:13;;;;;;;17.35;13.02;;;12.70;99.90;;;;;;6188373;23;20001;-66
2023/10/25 01:39:38;;;;;;;17.25;11.70;;;12.70;99.90;;;;;;6189588;23;20322;-69
2023/10/25 01:42:05;;;;;;;16.30;12.43;;;12.70;99.90;;;;;;6189953;23;20008;-68
2023/10/25 01:44:31;;;;;;;15.50;11.73;;;12.70;99.90;;;;;;6189060;23;20521;-68
2023/10/25 01:46:57;;;;;;;14.30;12.15;;;12.60;99.90;;;;;;6190209;23;20005;-68
2023/10/25 01:49:23;;;;;;;14.48;11.10;;;12.60;99.90;;;;;;6191483;23;20534;-68
2023/10/25 01:51:49;;;;;;;14.52;11.63;;;12.70;99.90;;;;;;6193012;23;20040;-68
2023/10/25 01:54:14;;;;;;;13.90;11.18;;;12.70;99.90;;;;;;6192790;23;20001;-67
2023/10/25 01:56:40;;;;;;;17.77;12.27;;;12.70;99.90;;;;;;6191436;23;20076;-68
2023/10/25 01:59:06;;;;;;;15.55;10.82;;;12.70;99.90;;;;;;6191776;23;20001;-68
2023/10/25 02:01:31;;;;;;;16.17;12.05;;;12.70;99.90;;;;;;6190015;23;20445;-68
2023/10/25 02:03:57;;;;;;;14.68;11.32;;;12.70;99.90;;;;;;6191135;23;19993;-68
2023/10/25 02:06:23;;;;;;;13.20;10.93;;;12.70;99.90;;;;;;6191364;23;20081;-68
2023/10/25 02:08:49;;;;;;;12.43;10.55;;;12.70;99.90;;;;;;6191695;23;20001;-68
2023/10/25 02:11:20;;;;;;;15.00;11.43;;;12.70;99.90;;;;;;6193613;23;20005;-68
2023/10/25 02:13:46;;;;;;;14.50;10.30;;;12.70;99.90;;;;;;6191399;23;20001;-69
2023/10/25 02:16:15;;;;;;;13.35;10.00;;;12.70;99.90;;;;;;6190114;23;20008;-69
2023/10/25 02:18:41;;;;;;;16.17;11.13;;;12.80;99.90;;;;;;6191764;23;20027;-69
2023/10/25 02:21:08;;;;;;;17.00;11.90;;;12.80;99.90;;;;;;6194189;23;20319;-69
2023/10/25 02:23:33;;;;;;;11.80;10.05;;;12.70;99.90;;;;;;6195199;23;19997;-69
2023/10/25 02:25:59;;;;;;;13.07;11.45;;;12.80;99.90;;;;;;6196197;23;19997;-69
2023/10/25 02:28:24;;;;;;;13.95;10.38;;;12.80;99.90;;;;;;6196239;23;20007;-69
2023/10/25 02:30:50;;;;;;;13.48;10.98;;;12.80;99.90;;;;;;6195279;23;20112;-69
2023/10/25 02:33:16;;;;;;;15.80;11.10;;;12.90;99.90;;;;;;6195773;23;20005;-69
2023/10/25 02:35:41;;;;;;;14.57;10.90;;;12.80;99.90;;;;;;6195490;23;20076;-69
2023/10/25 02:38:07;;;;;;;13.23;10.60;;;12.80;99.90;;;;;;6194966;23;20487;-70
2023/10/25 02:40:35;;;;;;;13.55;11.05;;;12.80;99.90;;;;;;6195187;23;20065;-70
2023/10/25 02:43:01;;;;;;;13.83;10.33;;;12.90;99.90;;;;;;6193186;23;20465;-70
2023/10/25 02:45:27;;;;;;;13.43;10.00;;;12.90;99.90;;;;;;6193225;23;19997;-70
2023/10/25 02:47:54;;;;;;;13.45;10.80;;;12.90;99.90;;;;;;6194921;23;20004;-70
2023/10/25 02:50:20;;;;;;;11.30;9.93;;;13.00;99.90;;;;;;6193799;23;20012;-70
2023/10/25 02:52:49;;;;;;;12.63;10.50;;;13.00;99.90;;;;;;6192327;23;20339;-69
2023/10/25 02:55:17;;;;;;;13.70;9.95;;;13.00;99.90;;;;;;6192257;23;20001;-69
2023/10/25 02:57:43;;;;;;;11.65;9.98;;;13.00;99.90;;;;;;6191294;23;20005;-69
2023/10/25 03:00:12;;;;;;;12.38;10.32;;;13.00;99.90;;;;;;6193654;23;20422;-70
2023/10/25 03:02:38;;;;;;;;;;;13.00;99.90;;;;;;6192635;23;20111;-69
2023/10/25 03:05:04;;;;;;;13.55;10.10;;;13.00;99.90;;;;;;6192983;23;19900;-70
2023/10/25 03:07:29;;;;;;;14.32;10.30;;;13.10;99.90;;;;;;6196445;23;20427;-70
2023/10/25 03:09:55;;;;;;;14.65;10.77;;;13.00;99.90;;;;;;6198492;23;20032;-69
2023/10/25 03:12:21;;;;;;;13.13;10.07;;;13.00;99.90;;;;;;6197973;23;20009;-70
2023/10/25 03:14:47;;;;;;;12.68;9.57;;;13.00;99.90;;;;;;6197428;23;20048;-69
2023/10/25 03:17:12;;;;;;;11.50;9.93;;;13.00;99.90;;;;;;6194973;23;20044;-69
2023/10/25 03:19:38;;;;;;;13.80;9.90;;;13.10;99.90;;;;;;6193005;23;20013;-69
2023/10/25 03:22:06;;;;;;;12.25;9.35;;;13.00;99.90;;;;;;6194710;23;20005;-68
2023/10/25 03:24:32;;;;;;;12.60;9.77;;;13.00;99.90;;;;;;6192886;23;20001;-69
2023/10/25 03:26:58;;;;;;;11.85;9.02;;;13.00;99.90;;;;;;6190731;23;20058;-68
2023/10/25 03:29:23;;;;;;;10.70;8.57;;;13.00;99.90;;;;;;6187508;23;20083;-68
2023/10/25 03:31:50;;;;;;;9.52;8.23;;;13.00;99.90;;;;;;6185746;23;20015;-67
2023/10/25 03:34:18;;;;;;;10.88;8.32;;;13.00;99.90;;;;;;6186723;23;20423;-67
2023/10/25 03:36:44;;;;;;;10.32;8.57;;;13.00;99.90;;;;;;6188684;23;20007;-67
2023/10/25 03:39:14;;;;;;;8.55;7.65;;;13.10;99.90;;;;;;6186911;23;20352;-67
2023/10/25 03:41:41;;;;;;;11.85;8.43;;;13.00;99.90;;;;;;6186768;23;20005;-67
2023/10/25 03:44:07;;;;;;;9.07;7.93;;;13.10;99.90;;;;;;6186275;23;20008;-67
2023/10/25 03:46:32;;;;;;;13.30;7.88;;;13.00;99.90;;;;;;6185587;23;20005;-67
2023/10/25 03:48:58;;;;;;;8.60;7.60;;;13.00;99.90;;;;;;6184868;23;20001;-67
2023/10/25 03:51:23;;;;;;;12.73;8.02;;;13.00;99.90;;;;;;6184616;23;20438;-66
2023/10/25 03:53:49;;;;;;;11.18;7.72;;;13.00;99.90;;;;;;6186228;23;20001;-66
2023/10/25 03:56:15;;;;;;;8.93;7.57;;;13.00;99.90;;;;;;6186204;23;20055;-66
2023/10/25 03:58:40;;;;;;;10.70;8.80;;;12.90;99.90;;;;;;6187515;23;20079;-66
2023/10/25 04:01:07;;;;;;;9.30;8.07;;;12.80;99.90;;;;;;6186350;23;20005;-66
2023/10/25 04:03:33;;;;;;;12.40;9.70;;;12.80;99.90;;;;;;6188007;23;19997;-66
2023/10/25 04:05:59;;;;;;;13.88;9.30;;;12.80;99.90;;;;;;6187970;23;20020;-66
2023/10/25 04:08:25;;;;;;;11.82;8.73;;;12.70;99.90;;;;;;6186258;23;20434;-66
2023/10/25 04:10:52;;;;;;;12.27;9.75;;;12.70;99.90;;;;;;6186679;23;20001;-66
2023/10/25 04:13:19;;;;;;;13.98;10.02;;;12.70;99.90;;;;;;6189218;23;20003;-66
2023/10/25 04:15:59;;;;;;;13.75;10.02;;;12.70;99.90;;;;;;6187863;23;20320;-67
2023/10/25 04:18:28;;;;;;;13.77;9.70;;;12.60;99.90;;;;;;6186146;23;20465;-65
2023/10/25 04:20:55;;;;;;;12.77;9.98;;;12.60;99.90;;;;;;6188134;23;20016;-66
2023/10/25 04:23:21;;;;;;;12.07;9.82;;;12.70;99.90;;;;;;6187158;23;20004;-68
2023/10/25 04:25:47;;;;;;;13.70;10.68;;;12.70;99.90;;;;;;6188264;23;20004;-66
2023/10/25 04:28:13;;;;;;;12.80;9.90;;;12.70;99.90;;;;;;6186397;23;20430;-66
2023/10/25 04:30:40;;;;;;;15.15;11.30;;;12.70;99.90;;;;;;6188035;23;20012;-66
2023/10/25 04:33:06;;;;;;;15.55;11.25;;;12.70;99.90;;;;;;6188179;23;20001;-67
2023/10/25 04:35:32;;;;;;;14.50;11.45;;;12.70;99.90;;;;;;6186067;23;20007;-66
2023/10/25 04:37:58;;;;;;;19.67;12.20;;;12.70;99.90;;;;;;6187489;23;20036;-66
2023/10/25 04:40:24;;;;;;;14.73;12.00;;;12.60;99.90;;;;;;6186052;23;20001;-66
2023/10/25 04:42:50;;;;;;;14.93;11.80;;;12.60;99.90;;;;;;6188285;23;20064;-66
2023/10/25 04:45:16;;;;;;;16.15;12.00;;;12.70;99.90;;;;;;6185998;23;20004;-65
2023/10/25 04:47:42;;;;;;;13.93;11.48;;;12.70;99.90;;;;;;6187313;23;20316;-66
2023/10/25 04:50:08;;;;;;;14.98;10.55;;;12.70;99.90;;;;;;6187388;23;20059;-65
2023/10/25 04:52:34;;;;;;;14.55;10.77;;;12.80;99.90;;;;;;6186233;23;20005;-65
2023/10/25 04:54:59;;;;;;;13.10;10.63;;;12.90;99.90;;;;;;6185972;23;20059;-65
2023/10/25 04:57:25;;;;;;;12.35;10.18;;;13.00;99.90;;;;;;6187432;23;20319;-65
2023/10/25 04:59:52;;;;;;;10.40;9.27;;;13.00;99.90;;;;;;6185828;23;20001;-65
2023/10/25 05:02:18;;;;;;;10.85;8.57;;;13.00;99.90;;;;;;6185864;23;20450;-65
2023/10/25 05:04:44;;;;;;;11.27;8.32;;;13.10;99.90;;;;;;6187504;23;19993;-66
2023/10/25 05:07:10;;;;;;;11.02;7.95;;;13.10;99.90;;;;;;6186389;23;20085;-65
2023/10/25 05:09:35;;;;;;;9.95;7.82;;;13.10;99.90;;;;;;6187421;23;19993;-65
2023/10/25 05:12:06;;;;;;;11.35;7.70;;;13.20;99.90;;;;;;6187208;23;20043;-65
2023/10/25 05:14:33;;;;;;;9.90;7.35;;;13.20;99.90;;;;;;6186090;23;20379;-67
2023/10/25 05:16:59;;;;;;;7.43;6.57;;;13.20;99.90;;;;;;6188092;23;20040;-74
2023/10/25 05:19:25;;;;;;;8.90;7.40;;;13.20;99.90;;;;;;6188777;23;20013;-69
2023/10/25 05:21:51;;;;;;;9.40;6.85;;;13.20;99.90;;;;;;6188654;23;20012;-65
2023/10/25 05:24:17;;;;;;;8.05;6.28;;;13.20;99.90;;;;;;6188633;23;20136;-66
2023/10/25 05:26:44;;;;;;;6.53;5.60;;;13.20;99.90;;;;;;6188496;23;20001;-65
2023/10/25 05:29:10;;;;;;;7.15;6.45;;;13.20;99.90;;;;;;6185718;23;20419;-65
2023/10/25 05:31:45;;;;;;;5.97;5.38;;;13.30;99.90;;;;;;6185682;23;20016;-65
2023/10/25 05:34:11;;;;;;;7.15;5.75;;;13.30;99.90;;;;;;6186988;23;20005;-65
2023/10/25 05:36:38;;;;;;;5.68;5.07;;;13.30;99.90;;;;;;6185827;23;20093;-65
2023/10/25 05:39:05;;;;;;;5.70;5.10;;;13.30;99.90;;;;;;6187104;23;20292;-66
2023/10/25 05:41:35;;;;;;;5.28;4.78;;;13.30;99.90;;;;;;6185375;23;20005;-65
2023/10/25 05:44:07;;;;;;;6.38;5.38;;;13.30;99.90;;;;;;6186110;23;20056;-65
2023/10/25 05:46:33;;;;;;;4.78;4.32;;;13.30;99.90;;;;;;6187080;23;19993;-66
2023/10/25 05:48:59;;;;;;;4.85;4.43;;;13.20;99.90;;;;;;6187900;23;19997;-66
2023/10/25 05:51:25;;;;;;;5.50;4.70;;;13.20;99.90;;;;;;6186822;23;20005;-65
2023/10/25 05:53:51;;;;;;;5.38;4.85;;;13.20;99.90;;;;;;6186869;23;20000;-65
2023/10/25 05:56:17;;;;;;;6.03;4.47;;;13.20;99.90;;;;;;6186954;23;20036;-65
2023/10/25 05:58:43;;;;;;;4.60;4.20;;;13.20;99.90;;;;;;6186859;23;20032;-66
2023/10/25 06:01:09;;;;;;;6.78;4.15;;;13.20;99.90;;;;;;6187130;23;20009;-66
2023/10/25 06:03:36;;;;;;;4.63;4.18;;;13.20;99.90;;;;;;6186971;23;20001;-65
2023/10/25 06:06:03;;;;;;;5.70;4.68;;;13.30;99.90;;;;;;6186777;23;20001;-65
2023/10/25 06:08:29;;;;;;;8.02;5.20;;;13.20;99.90;;;;;;6186379;23;19997;-65
2023/10/25 06:10:55;;;;;;;4.75;4.32;;;13.20;99.90;;;;;;6186558;23;20077;-65
2023/10/25 06:13:22;;;;;;;4.78;4.13;;;13.20;99.90;;;;;;6187193;23;20005;-65
2023/10/25 06:15:47;;;;;;;6.03;4.50;;;13.20;99.90;;;;;;6186805;23;20284;-66
2023/10/25 06:18:13;;;;;;;5.00;4.20;;;13.20;99.90;;;;;;6186179;23;20096;-65
2023/10/25 06:20:39;;;;;;;5.40;4.80;;;13.20;99.90;;;;;;6185116;23;20426;-65
2023/10/25 06:23:05;;;;;;;5.70;4.57;;;13.30;99.90;;;;;;6184870;23;20033;-65
2023/10/25 06:25:31;;;;;;;5.90;4.72;;;13.30;99.90;;;;;;6185498;23;19997;-65
2023/10/25 06:27:59;;;;;;;4.78;4.35;;;13.30;99.90;;;;;;6186589;23;20004;-65
2023/10/25 06:30:26;;;;;;;4.85;4.35;;;13.30;99.90;;;;;;6185834;23;20039;-65
2023/10/25 06:32:52;;;;;;;4.45;4.05;;;13.30;99.90;;;;;;6186857;23;20012;-65
2023/10/25 06:35:17;;;;;;;5.15;4.07;;;13.30;99.90;;;;;;6185100;23;20001;-65
2023/10/25 06:37:43;;;;;;;4.55;4.05;;;13.40;99.90;;;;;;6186481;23;20005;-65
2023/10/25 06:40:09;;;;;;;4.90;4.50;;;13.40;99.90;;;;;;6185021;23;20008;-65
2023/10/25 06:42:35;;;;;;;5.10;4.15;;;13.40;99.90;;;;;;6186251;23;20005;-66
2023/10/25 06:45:02;;;;;;;5.28;3.72;;;13.40;99.90;;;;;;6186589;23;20175;-65
2023/10/25 06:47:28;;;;;;;4.43;4.05;;;13.50;99.90;;;;;;6186629;23;20001;-65
2023/10/25 06:49:54;;;;;;;5.25;4.75;;;13.50;99.90;;;;;;6186300;23;20073;-66
2023/10/25 06:52:20;;;;;;;4.40;4.00;;;13.50;99.90;;;;;;6185070;23;20005;-66
2023/10/25 06:54:47;;;;;;;4.35;3.95;;;13.50;99.90;;;;;;6186326;23;20001;-66
2023/10/25 06:57:13;;;;;;;4.68;4.25;;;13.50;99.90;;;;;;6186873;23;20304;-66
2023/10/25 06:59:39;;;;;;;4.95;4.25;;;13.50;99.90;;;;;;6185951;23;20005;-67
2023/10/25 07:02:31;;;;;;;4.97;4.03;;;13.50;99.90;;;;;;6186716;23;20008;-66
2023/10/25 07:05:05;;;;;;;4.70;4.30;;;13.60;99.90;;;;;;6178222;23;20059;-66
2023/10/25 07:07:33;;;;;;;6.25;4.18;;;13.60;99.90;;;;;;6187066;23;20135;-66
2023/10/25 07:09:59;;;;;;;5.05;4.57;;;13.60;99.90;;;;;;6185955;23;20103;-66
2023/10/25 07:12:24;;;;;;;5.20;4.70;;;13.60;99.90;;;;;;6185387;23;20009;-66
2023/10/25 07:14:50;;;;;;;5.30;4.65;;;13.60;99.90;;;;;;6186740;23;20024;-66
2023/10/25 07:17:16;;;;;;;6.35;4.60;;;13.50;99.90;;;;;;6190043;23;20100;-66
2023/10/25 07:19:43;;;;;;;6.57;4.53;;;13.50;99.90;;;;;;6187128;23;20092;-66
2023/10/25 07:22:09;;;;;;;7.70;4.97;;;13.50;99.90;;;;;;6184965;23;20008;-66
2023/10/25 07:24:35;;;;;;;4.82;4.43;;;13.50;99.90;;;;;;6185409;23;20005;-66
2023/10/25 07:27:01;;;;;;;5.50;4.05;;;13.50;99.90;;;;;;6187163;23;20474;-66
2023/10/25 07:29:26;;;;;;;4.82;4.43;;;13.50;99.90;;;;;;6190397;23;19997;-66
2023/10/25 07:31:52;;;;;;;5.07;4.07;;;13.60;99.90;;;;;;6190238;23;20013;-70
2023/10/25 07:34:17;;;;;;;4.85;4.45;;;13.60;99.90;;;;;;6190601;23;20012;-66
2023/10/25 07:36:43;;;;;;;4.78;4.32;;;13.60;99.90;;;;;;6189976;23;20001;-66
2023/10/25 07:39:09;;;;;;;4.90;4.22;;;13.70;99.90;;;;;;6190752;23;20001;-66
2023/10/25 07:41:34;;;;;;;4.95;4.50;;;13.70;99.90;;;;;;6191012;23;20359;-66
2023/10/25 07:44:01;;;;;;;4.70;4.15;;;13.70;99.90;;;;;;6188769;23;20001;-66
2023/10/25 07:46:26;;;;;;;4.80;4.30;;;13.70;99.90;;;;;;6188918;23;20001;-66
2023/10/25 07:48:52;;;;;;;4.90;4.13;;;13.80;99.90;;;;;;6187005;23;20131;-66
2023/10/25 07:51:18;;;;;;;4.35;3.63;;;13.80;99.90;;;;;;6187978;23;20016;-66
2023/10/25 07:53:43;;;;;;;5.65;4.20;;;13.80;99.90;;;;;;6186732;23;20431;-66
2023/10/25 07:56:09;;;;;;;4.22;3.92;;;13.80;99.90;;;;;;6188249;23;20001;-66
2023/10/25 07:58:35;;;;;;;4.72;4.32;;;13.80;99.90;;;;;;6188271;23;20071;-66
2023/10/25 08:01:01;;;;;;;8.82;4.22;;;13.80;99.90;;;;;;6188025;23;20005;-66
2023/10/25 08:03:28;;;;;;;3.65;3.35;;;13.90;99.90;;;;;;6186395;23;20064;-66
2023/10/25 08:05:55;;;;;;;5.43;4.22;;;13.90;99.90;;;;;;6188059;23;19998;-66
2023/10/25 08:08:21;;;;;;;4.63;4.20;;;13.90;99.90;;;;;;6186809;23;20002;-66
2023/10/25 08:10:47;;;;;;;4.72;4.18;;;14.00;99.90;;;;;;6188551;23;20012;-66
2023/10/25 08:13:12;;;;;;;4.97;4.25;;;14.00;99.90;;;;;;6188189;23;20006;-66
2023/10/25 08:15:38;;;;;;;5.78;4.15;;;14.00;99.90;;;;;;6188142;23;20004;-66
2023/10/25 08:18:04;;;;;;;5.43;3.92;;;14.10;99.90;;;;;;6187538;23;20017;-66
2023/10/25 08:20:34;;;;;;;4.75;4.25;;;14.10;99.90;;;;;;6187895;23;20005;-66
2023/10/25 08:23:00;;;;;;;5.72;3.75;;;14.10;99.90;;;;;;6186734;23;20036;-66
2023/10/25 08:25:26;;;;;;;4.72;4.32;;;14.10;99.90;;;;;;6185929;23;20009;-66
2023/10/25 08:27:51;;;;;;;4.22;3.83;;;14.20;99.90;;;;;;6187763;23;20001;-66
2023/10/25 08:30:20;;;;;;;5.00;4.30;;;14.30;99.90;;;;;;6187506;23;20089;-66
2023/10/25 08:32:46;;;;;;;4.10;3.70;;;14.30;99.90;;;;;;6185900;23;20001;-66
2023/10/25 08:35:12;;;;;;;4.38;3.20;;;14.40;99.90;;;;;;6186342;23;20008;-66
2023/10/25 08:37:38;;;;;;;3.97;3.28;;;14.60;99.90;;;;;;6185905;23;20096;-66
2023/10/25 08:40:08;;;;;;;3.40;3.10;;;14.80;99.90;;;;;;6185854;23;20001;-66
2023/10/25 08:42:34;;;;;;;3.17;2.88;;;15.10;99.90;;;;;;6187384;23;20021;-66
2023/10/25 08:45:00;;;;;;;4.50;2.80;;;15.50;99.90;;;;;;6186713;23;20009;-66
2023/10/25 08:47:25;;;;;;;5.07;2.53;;;15.60;99.90;;;;;;6185768;23;20056;-66
2023/10/25 08:49:51;;;;;;;2.70;2.45;;;15.80;99.90;;;;;;6186956;23;20039;-66
2023/10/25 08:52:21;;;;;;;2.70;2.50;;;15.90;99.90;;;;;;6186834;23;20016;-66
2023/10/25 08:54:47;;;;;;;2.85;2.10;;;16.60;99.90;;;;;;6186833;23;20478;-66
2023/10/25 08:57:12;;;;;;;3.10;2.40;;;16.60;99.90;;;;;;6187449;23;20001;-66
2023/10/25 08:59:46;;;;;;;3.00;2.42;;;16.70;99.90;;;;;;6186883;23;19997;-67
2023/10/25 09:02:12;;;;;;;2.47;2.28;;;16.60;99.90;;;;;;6187391;23;20012;-66
2023/10/25 09:05:07;;;;;;;3.42;2.50;;;16.50;99.90;;;;;;6185730;23;20430;-66
2023/10/25 09:07:35;;;;;;;2.60;2.40;;;16.20;99.90;;;;;;6187209;23;20001;-66
2023/10/25 09:10:03;;;;;;;3.28;1.98;;;16.10;99.90;;;;;;6185530;23;20005;-66
2023/10/25 09:12:30;;;;;;;2.78;2.03;;;16.30;99.90;;;;;;6187351;23;20001;-66
2023/10/25 09:14:55;;;;;;;2.45;1.75;;;16.50;99.90;;;;;;6185921;23;20001;-67
2023/10/25 09:17:21;;;;;;;3.33;1.98;;;17.00;99.90;;;;;;6185633;23;20085;-67
2023/10/25 09:19:49;;;;;;;1.92;1.60;;;17.30;99.90;;;;;;6186629;23;20093;-66
2023/10/25 09:22:28;;;;;;;1.95;1.80;;;17.60;99.90;;;;;;6187516;23;20005;-66
2023/10/25 09:25:00;;;;;;;;;;;17.40;99.90;;;;;;6186614;23;20375;-66
2023/10/25 09:27:26;;;;;;;1.70;1.60;;;17.50;99.90;;;;;;6187817;23;19900;-66
2023/10/25 09:29:52;;;;;;;1.58;1.40;;;17.50;99.90;;;;;;6186169;23;20048;-67
2023/10/25 09:32:20;;;;;;;1.80;1.70;;;17.70;99.90;;;;;;6187593;23;20312;-66
2023/10/25 09:34:46;;;;;;;1.52;1.27;;;17.70;99.90;;;;;;6188711;23;20366;-66
2023/10/25 09:37:12;;;;;;;2.08;1.55;;;17.70;99.90;;;;;;6188050;23;20005;-66
2023/10/25 09:39:39;;;;;;;1.60;1.50;;;17.80;99.90;;;;;;6186549;23;20080;-66
2023/10/25 09:42:10;;;;;;;1.40;1.30;;;17.90;99.90;;;;;;6186719;23;20009;-67
2023/10/25 09:44:47;;;;;;;1.73;1.20;;;17.90;99.90;;;;;;6187200;23;20028;-66
2023/10/25 09:47:15;;;;;;;2.22;1.30;;;17.80;99.90;;;;;;6186938;23;20004;-67
2023/10/25 09:49:52;;;;;;;1.50;1.20;;;18.00;99.90;;;;;;6186609;23;20005;-66
2023/10/25 09:52:28;;;;;;;1.70;1.60;;;18.50;99.90;;;;;;6186619;23;20000;-66
2023/10/25 09:55:12;;;;;;;1.35;1.30;;;18.50;99.90;;;;;;6186819;23;20005;-66
2023/10/25 09:57:39;;;;;;;1.45;1.20;;;18.40;99.90;;;;;;6186874;23;19997;-66
2023/10/25 10:00:08;;;;;;;2.25;1.10;;;18.60;99.90;;;;;;6187164;23;20001;-66
2023/10/25 10:02:39;;;;;;;;;;;18.80;99.90;;;;;;6185525;23;20012;-67
2023/10/25 10:05:34;;;;;;;1.33;1.10;;;19.10;99.90;;;;;;6185289;23;19907;-66
2023/10/25 10:08:05;;;;;;;1.20;0.98;;;19.50;99.90;;;;;;6185517;23;20027;-67
2023/10/25 10:10:34;;;;;;;0.68;0.68;;;19.80;99.90;;;;;;6186786;23;20011;-67
2023/10/25 10:12:59;;;;;;;0.98;0.98;;;19.70;99.90;;;;;;6185142;23;20331;-67
2023/10/25 10:16:05;;;;;;;4.85;0.90;;;19.70;99.90;;;;;;6186142;23;20001;-67
2023/10/25 10:18:42;;;;;;;1.23;0.80;;;19.70;99.90;;;;;;6185637;23;20025;-67
2023/10/25 10:21:10;;;;;;;0.63;0.60;;;19.50;99.90;;;;;;6186553;23;20008;-67
2023/10/25 10:23:49;;;;;;;0.65;0.65;;;19.50;99.90;;;;;;6185000;23;20051;-67
2023/10/25 10:26:44;;;;;;;2.83;0.80;;;19.50;99.90;;;;;;6186815;23;20005;-67
2023/10/25 10:29:31;;;;;;;0.77;0.77;;;19.40;99.90;;;;;;6186100;23;20367;-66
2023/10/25 10:32:00;;;;;;;1.13;1.00;;;19.20;99.90;;;;;;6186361;23;20005;-67
2023/10/25 10:34:48;;;;;;;0.85;0.60;;;18.90;99.90;;;;;;6186525;23;20431;-66
2023/10/25 10:37:22;;;;;;;1.80;0.80;;;19.00;99.90;;;;;;6186649;23;20076;-67
2023/10/25 10:39:56;;;;;;;0.88;0.68;;;19.40;99.60;;;;;;6186647;23;20213;-67
2023/10/25 10:42:32;;;;;;;0.73;0.60;;;20.00;98.90;;;;;;6186336;23;20008;-67
2023/10/25 10:44:59;;;;;;;1.05;0.47;;;20.60;98.40;;;;;;6186348;23;19993;-67
2023/10/25 10:47:51;;;;;;;0.70;0.60;;;20.50;97.50;;;;;;6184677;23;20088;-66
2023/10/25 10:50:18;;;;;;;1.15;0.70;;;19.80;98.40;;;;;;6185974;23;20036;-67
2023/10/25 10:52:46;;;;;;;0.70;0.60;;;20.10;99.00;;;;;;6184839;23;20012;-67
2023/10/25 10:55:20;;;;;;;0.30;0.30;;;20.30;97.70;;;;;;6186029;23;20481;-67
2023/10/25 10:57:45;;;;;;;0.57;0.40;;;20.40;97.60;;;;;;6185114;23;20008;-67
2023/10/25 11:00:19;;;;;;;0.80;0.47;;;21.50;96.70;;;;;;6186748;23;19993;-66
2023/10/25 11:02:49;;;;;;;0.40;0.40;;;23.00;93.00;;;;;;6186438;23;20001;-67
2023/10/25 11:05:17;;;;;;;0.60;0.40;;;22.70;92.30;;;;;;6185088;23;19997;-66
2023/10/25 11:07:43;;;;;;;1.45;0.30;;;22.60;92.50;;;;;;6188421;23;20001;-67
2023/10/25 11:10:10;;;;;;;0.43;0.43;;;23.00;91.10;;;;;;6187565;23;20001;-67
2023/10/25 11:12:36;;;;;;;0.85;0.20;;;23.20;91.20;;;;;;6187410;23;20005;-67
2023/10/25 11:15:05;;;;;;;0.40;0.40;;;23.90;88.80;;;;;;6188662;23;20009;-66
2023/10/25 11:17:34;;;;;;;0.40;0.40;;;25.40;83.30;;;;;;6188695;23;20012;-67
2023/10/25 11:20:01;;;;;;;0.77;0.30;;;25.90;77.40;;;;;;6188822;23;20035;-68
2023/10/25 11:22:30;;;;;;;0.28;0.20;;;26.90;75.50;;;;;;6190287;23;20363;-67
2023/10/25 11:24:56;;;;;;;0.20;0.20;;;27.80;71.00;;;;;;6194124;23;20480;-67
2023/10/25 11:27:28;;;;;;;0.10;0.10;;;27.40;67.50;;;;;;6192225;23;20343;-67
2023/10/25 11:29:54;;;;;;;1.95;0.20;;;26.50;68.50;;;;;;6193998;23;20052;-67
2023/10/25 11:32:19;;;;;;;0.75;0.30;;;25.30;69.40;;;;;;6192154;23;20359;-67
2023/10/25 11:34:47;;;;;;;0.57;0.45;;;25.30;69.90;;;;;;6189751;23;20001;-67
2023/10/25 11:37:12;;;;;;;0.15;0.15;;;25.70;68.20;;;;;;6188464;23;20079;-67
2023/10/25 11:39:58;;;;;;;0.30;0.30;;;25.60;67.00;;;;;;6188306;23;20035;-67
2023/10/25 11:42:27;;;;;;;0.52;0.20;;;24.80;68.20;;;;;;6186879;23;20084;-67
2023/10/25 11:44:54;;;;;;;0.55;0.32;;;23.90;70.30;;;;;;6190656;23;20012;-67
2023/10/25 11:47:21;;;;;;;0.40;0.22;;;23.10;72.80;;;;;;6193540;23;19997;-67
2023/10/25 11:49:57;;;;;;;0.40;0.35;;;22.40;74.00;;;;;;6187046;23;20323;-66
2023/10/25 11:52:24;;;;;;;0.30;0.30;;;22.40;75.00;;;;;;6188026;23;19997;-66
2023/10/25 11:54:55;;;;;;;0.55;0.15;;;22.90;72.90;;;;;;6186692;23;20411;-66
2023/10/25 11:57:28;;;;;;;1.15;0.20;;;23.00;73.10;;;;;;6188274;23;20032;-67
2023/10/25 11:59:54;;;;;;;0.00;0.00;;;23.50;71.90;;;;;;6186584;23;20323;-67
2023/10/25 12:02:22;;;;;;;0.20;0.00;;;24.00;69.00;;;;;;6187535;23;20430;-67
2023/10/25 12:04:48;;;;;;;0.10;0.10;;;24.00;68.70;;;;;;6187901;23;20392;-67
2023/10/25 12:07:14;;;;;;;0.20;0.00;;;24.00;68.50;;;;;;6186989;23;20006;-67
2023/10/25 12:09:42;;;;;;;0.10;0.10;;;23.90;69.00;;;;;;6187518;23;20072;-67
2023/10/25 12:12:09;;;;;;;0.00;0.00;;;23.60;70.30;;;;;;6186404;23;20099;-67
2023/10/25 12:14:34;;;;;;;0.25;0.20;;;23.20;71.20;;;;;;6187301;23;20033;-67
2023/10/25 12:17:00;;;;;;;0.40;0.10;;;22.70;72.10;;;;;;6187730;23;20320;-67
2023/10/25 12:19:26;;;;;;;1.85;0.22;;;22.30;72.80;;;;;;6187456;23;20017;-67
2023/10/25 12:21:55;;;;;;;0.45;0.32;;;22.00;74.50;;;;;;6186014;23;20013;-66
2023/10/25 12:24:22;;;;;;;0.93;0.22;;;21.70;75.20;;;;;;6187768;23;20084;-65
2023/10/25 12:26:48;;;;;;;0.70;0.20;;;21.30;76.10;;;;;;6187702;23;20003;-68
2023/10/25 12:29:14;;;;;;;0.57;0.25;;;20.90;77.20;;;;;;6187412;23;20036;-67
2023/10/25 12:31:39;;;;;;;0.30;0.20;;;20.50;79.60;;;;;;6187723;23;20083;-67
2023/10/25 12:34:05;;;;;;;0.88;0.20;;;20.30;82.40;;;;;;6187653;23;20128;-67
2023/10/25 12:36:30;;;;;;;1.55;0.20;;;20.10;81.40;;;;;;6185890;23;20017;-67
2023/10/25 12:38:56;;;;;;;0.35;0.10;;;20.00;83.60;;;;;;6185919;23;20001;-67
2023/10/25 12:41:22;;;;;;;0.00;0.00;;;19.90;81.40;;;;;;6187589;23;20011;-67
2023/10/25 12:43:47;;;;;;;0.40;0.13;;;20.00;80.50;;;;;;6186827;23;20016;-68